Time;durP1;ratioP1;P1;durP2;ratioP2;P2;SDS_P1;SDS_P2;PMS_P1;PMS_P2;Temp;Humidity;BMP_temperature;BMP_pressure;BME280_temperature;BME280_humidity;BME280_pressure;Samples;Min_cycle;Max_cycle;Signal;HPM_P1;HPM_P2
2024/03/05 00:00:15;;;;;;;25.30;12.83;;;7.30;99.90;;;;;;5072814;28;20174;-62
2024/03/05 00:02:43;;;;;;;27.33;10.88;;;7.30;99.90;;;;;;5072720;28;20223;-62
2024/03/05 00:05:12;;;;;;;15.95;10.25;;;7.30;99.90;;;;;;5054594;28;20229;-62
2024/03/05 00:07:38;;;;;;;25.52;10.02;;;7.30;99.90;;;;;;5072174;28;20181;-62
2024/03/05 00:10:04;;;;;;;26.90;12.53;;;7.30;99.90;;;;;;5072501;28;20250;-62
2024/03/05 00:12:31;;;;;;;20.95;10.82;;;7.40;99.90;;;;;;5072504;28;20252;-62
2024/03/05 00:14:56;;;;;;;22.88;12.23;;;7.40;99.90;;;;;;5072448;28;20251;-62
2024/03/05 00:17:26;;;;;;;32.43;10.67;;;7.40;99.90;;;;;;5072419;28;20169;-62
2024/03/05 00:19:52;;;;;;;24.77;12.77;;;7.40;99.90;;;;;;5072202;28;20657;-62
2024/03/05 00:22:21;;;;;;;21.75;11.27;;;7.40;99.90;;;;;;5072236;28;20186;-62
2024/03/05 00:24:46;;;;;;;17.55;11.55;;;7.40;99.90;;;;;;5072100;28;20648;-62
2024/03/05 00:27:13;;;;;;;17.23;10.13;;;7.40;99.90;;;;;;5072234;28;20284;-62
2024/03/05 00:29:41;;;;;;;18.42;9.50;;;7.40;99.90;;;;;;5071874;28;20166;-62
2024/03/05 00:32:07;;;;;;;27.90;12.52;;;7.40;99.90;;;;;;5072146;28;20174;-62
2024/03/05 00:34:32;;;;;;;23.50;11.73;;;7.40;99.90;;;;;;5071860;28;20197;-62
2024/03/05 00:36:58;;;;;;;34.20;12.27;;;7.50;99.90;;;;;;5071954;28;20181;-62
2024/03/05 00:39:24;;;;;;;16.83;10.60;;;7.60;99.90;;;;;;5071682;28;20184;-62
2024/03/05 00:41:49;;;;;;;24.47;12.20;;;7.70;99.90;;;;;;5071948;28;20516;-62
2024/03/05 00:44:16;;;;;;;27.63;10.10;;;7.70;99.90;;;;;;5054153;28;20204;-62
2024/03/05 00:46:42;;;;;;;22.02;11.00;;;7.70;99.90;;;;;;5071806;28;20220;-62
2024/03/05 00:49:07;;;;;;;19.70;11.47;;;7.60;99.90;;;;;;5071497;28;20197;-62
2024/03/05 00:51:34;;;;;;;15.50;10.37;;;7.60;99.90;;;;;;5071671;28;20729;-62
2024/03/05 00:54:01;;;;;;;19.38;9.77;;;7.70;99.90;;;;;;5071688;28;20598;-62
2024/03/05 00:56:26;;;;;;;23.23;10.95;;;7.60;99.90;;;;;;5071642;28;20173;-62
2024/03/05 00:58:52;;;;;;;18.80;9.70;;;7.50;99.90;;;;;;5071456;28;20215;-62
2024/03/05 01:01:18;;;;;;;16.70;10.17;;;7.40;99.90;;;;;;5071632;28;20280;-62
2024/03/05 01:03:43;;;;;;;13.47;9.07;;;7.40;99.90;;;;;;5071655;28;20196;-62
2024/03/05 01:06:09;;;;;;;12.40;9.77;;;7.40;99.90;;;;;;5071597;28;20173;-62
2024/03/05 01:08:35;;;;;;;13.20;9.63;;;7.40;99.90;;;;;;5071448;28;20226;-62
2024/03/05 01:11:01;;;;;;;17.43;10.03;;;7.40;99.90;;;;;;5071631;28;20174;-62
2024/03/05 01:13:27;;;;;;;17.90;9.35;;;7.40;99.90;;;;;;5071807;28;20201;-62
2024/03/05 01:15:52;;;;;;;22.90;10.37;;;7.60;99.90;;;;;;5071700;28;20197;-62
2024/03/05 01:18:18;;;;;;;23.93;11.83;;;7.60;99.90;;;;;;5071233;28;20669;-62
2024/03/05 01:20:44;;;;;;;17.23;10.33;;;7.60;99.90;;;;;;5071416;28;20243;-63
2024/03/05 01:23:13;;;;;;;13.63;9.00;;;7.60;99.90;;;;;;5071423;28;20180;-62
2024/03/05 01:25:39;;;;;;;17.70;9.82;;;7.50;99.90;;;;;;5071310;28;20805;-62
2024/03/05 01:28:05;;;;;;;13.50;9.23;;;7.50;99.90;;;;;;5071254;28;20275;-62
2024/03/05 01:30:31;;;;;;;19.92;11.20;;;7.60;99.90;;;;;;5071409;28;20252;-62
2024/03/05 01:33:03;;;;;;;17.57;9.77;;;7.70;99.90;;;;;;5071129;28;20638;-62
2024/03/05 01:35:30;;;;;;;13.02;8.13;;;7.60;99.90;;;;;;5071270;28;20477;-62
2024/03/05 01:37:56;;;;;;;12.93;8.23;;;7.50;99.90;;;;;;5071023;28;20169;-62
2024/03/05 01:40:22;;;;;;;16.20;9.10;;;7.50;99.90;;;;;;5071340;28;20173;-62
2024/03/05 01:42:48;;;;;;;14.90;7.80;;;7.60;99.90;;;;;;5071195;28;20234;-62
2024/03/05 01:45:18;;;;;;;11.50;7.75;;;7.50;99.90;;;;;;5071215;28;20507;-62
2024/03/05 01:47:44;;;;;;;12.85;9.40;;;7.50;99.90;;;;;;5070811;28;20265;-62
2024/03/05 01:50:10;;;;;;;20.83;8.43;;;7.50;99.90;;;;;;5071103;28;20183;-62
2024/03/05 01:52:37;;;;;;;16.17;9.03;;;7.50;99.90;;;;;;5071366;28;20268;-62
2024/03/05 01:55:09;;;;;;;19.48;10.30;;;7.50;99.90;;;;;;5071030;28;20457;-62
2024/03/05 01:57:36;;;;;;;14.95;10.32;;;7.50;99.90;;;;;;5070857;28;20172;-62
2024/03/05 02:00:03;;;;;;;16.42;9.65;;;7.40;99.90;;;;;;5071109;28;20201;-62
2024/03/05 02:02:29;;;;;;;21.35;10.82;;;7.40;99.90;;;;;;5070921;28;20209;-62
2024/03/05 02:04:56;;;;;;;20.05;10.07;;;7.40;99.90;;;;;;5070977;28;20740;-62
2024/03/05 02:07:23;;;;;;;15.45;10.43;;;7.40;99.90;;;;;;5071142;28;20566;-62
2024/03/05 02:09:50;;;;;;;17.02;9.88;;;7.40;99.90;;;;;;5073321;28;20185;-62
2024/03/05 02:12:17;;;;;;;16.27;9.15;;;7.40;99.90;;;;;;5074818;28;20647;-62
2024/03/05 02:14:43;;;;;;;11.82;8.18;;;7.40;99.90;;;;;;5074584;28;20281;-62
2024/03/05 02:17:10;;;;;;;11.63;8.43;;;7.50;99.90;;;;;;5074632;28;20249;-62
2024/03/05 02:19:36;;;;;;;15.65;8.30;;;7.50;99.90;;;;;;5074480;28;20172;-62
2024/03/05 02:22:02;;;;;;;14.77;9.77;;;7.50;99.90;;;;;;5074499;28;20195;-62
2024/03/05 02:24:28;;;;;;;16.77;9.52;;;7.50;99.90;;;;;;5074438;28;20446;-62
2024/03/05 02:26:55;;;;;;;17.67;9.40;;;7.40;99.90;;;;;;5074508;28;20173;-62
2024/03/05 02:29:21;;;;;;;19.30;10.50;;;7.30;99.90;;;;;;5074133;28;20183;-62
2024/03/05 02:31:47;;;;;;;29.17;13.55;;;7.30;99.90;;;;;;5074284;28;20181;-62
2024/03/05 02:34:13;;;;;;;23.20;12.67;;;7.20;99.90;;;;;;5074254;28;20201;-62
2024/03/05 02:36:39;;;;;;;18.67;12.70;;;7.20;99.90;;;;;;5074393;28;20412;-62
2024/03/05 02:39:07;;;;;;;38.33;15.90;;;7.00;99.90;;;;;;5074109;28;20418;-62
2024/03/05 02:41:33;;;;;;;25.55;15.38;;;7.00;99.90;;;;;;5074251;28;20215;-62
2024/03/05 02:43:59;;;;;;;18.33;12.07;;;7.10;99.90;;;;;;5073976;28;20712;-62
2024/03/05 02:46:24;;;;;;;18.50;11.30;;;7.10;99.90;;;;;;5074166;28;20173;-62
2024/03/05 02:48:50;;;;;;;14.47;10.40;;;7.10;99.90;;;;;;5073934;28;20417;-62
2024/03/05 02:51:16;;;;;;;20.60;10.70;;;7.10;99.90;;;;;;5074184;28;20195;-62
2024/03/05 02:53:41;;;;;;;17.10;11.70;;;7.10;99.90;;;;;;5073865;28;20689;-62
2024/03/05 02:56:09;;;;;;;17.70;12.13;;;7.10;99.90;;;;;;5074049;28;20200;-62
2024/03/05 02:58:35;;;;;;;12.95;10.02;;;7.20;99.90;;;;;;5073589;28;20203;-62
2024/03/05 03:01:02;;;;;;;16.57;10.90;;;7.10;99.90;;;;;;5073849;28;20291;-62
2024/03/05 03:03:27;;;;;;;19.48;9.48;;;7.10;99.90;;;;;;5073984;28;20209;-62
2024/03/05 03:05:53;;;;;;;15.33;8.70;;;7.00;99.90;;;;;;5073866;28;20198;-62
2024/03/05 03:08:18;;;;;;;19.50;10.17;;;7.00;99.90;;;;;;5073575;28;20690;-62
2024/03/05 03:10:44;;;;;;;14.73;10.10;;;7.00;99.90;;;;;;5073803;28;20600;-62
2024/03/05 03:13:10;;;;;;;13.53;8.13;;;7.00;99.90;;;;;;5073536;28;20176;-62
2024/03/05 03:15:35;;;;;;;14.57;9.53;;;7.00;99.90;;;;;;5073533;28;20658;-62
2024/03/05 03:18:01;;;;;;;18.47;9.40;;;7.00;99.90;;;;;;5073415;28;20175;-62
2024/03/05 03:20:26;;;;;;;11.63;9.13;;;7.10;99.90;;;;;;5073576;28;20176;-62
2024/03/05 03:22:52;;;;;;;13.47;8.70;;;7.10;99.90;;;;;;5073584;28;20173;-62
2024/03/05 03:25:18;;;;;;;12.40;8.30;;;7.10;99.90;;;;;;5073392;28;20208;-62
2024/03/05 03:27:44;;;;;;;15.90;8.87;;;7.20;99.90;;;;;;5072866;28;20212;-61
2024/03/05 03:30:17;;;;;;;11.67;7.57;;;7.20;99.90;;;;;;5073257;28;20177;-62
2024/03/05 03:32:43;;;;;;;14.05;9.20;;;7.20;99.90;;;;;;5073317;28;20213;-62
2024/03/05 03:35:10;;;;;;;9.95;6.95;;;7.10;99.90;;;;;;5073134;28;20236;-62
2024/03/05 03:37:37;;;;;;;9.82;7.25;;;6.90;99.90;;;;;;5072952;28;20176;-62
2024/03/05 03:40:07;;;;;;;14.10;8.02;;;6.80;99.90;;;;;;5073242;28;20654;-62
2024/03/05 03:42:32;;;;;;;10.27;7.50;;;6.80;99.90;;;;;;5072820;28;20226;-61
2024/03/05 03:44:58;;;;;;;10.87;7.00;;;6.80;99.90;;;;;;5072982;28;20287;-62
2024/03/05 03:47:24;;;;;;;7.27;6.43;;;6.80;99.90;;;;;;5072986;28;20173;-62
2024/03/05 03:49:49;;;;;;;11.60;7.03;;;6.80;99.90;;;;;;5072891;28;20177;-62
2024/03/05 03:52:15;;;;;;;12.87;7.87;;;6.90;99.90;;;;;;5072946;28;20183;-62
2024/03/05 03:54:42;;;;;;;14.27;8.85;;;6.90;99.90;;;;;;5072781;28;20215;-62
2024/03/05 03:57:08;;;;;;;14.38;7.30;;;7.00;99.90;;;;;;5071634;28;20184;-62
2024/03/05 03:59:35;;;;;;;10.70;6.28;;;7.10;99.90;;;;;;5072198;28;20163;-62
2024/03/05 04:02:00;;;;;;;12.18;7.20;;;6.90;99.90;;;;;;5072603;28;20184;-62
2024/03/05 04:04:26;;;;;;;9.50;7.33;;;6.90;99.90;;;;;;5072647;28;20572;-62
2024/03/05 04:06:52;;;;;;;12.30;7.33;;;6.90;99.90;;;;;;5072608;28;20174;-61
2024/03/05 04:09:18;;;;;;;8.33;5.57;;;7.00;99.90;;;;;;5072342;28;20267;-62
2024/03/05 04:11:44;;;;;;;11.95;7.20;;;7.00;99.90;;;;;;5072512;28;20503;-62
2024/03/05 04:14:10;;;;;;;12.13;7.07;;;7.00;99.90;;;;;;5072195;28;20217;-62
2024/03/05 04:16:40;;;;;;;13.23;8.57;;;7.00;99.90;;;;;;5072621;28;20180;-62
2024/03/05 04:19:09;;;;;;;8.40;7.13;;;7.00;99.90;;;;;;5072093;28;20463;-62
2024/03/05 04:21:42;;;;;;;8.70;6.20;;;6.90;99.90;;;;;;5072411;28;20176;-62
2024/03/05 04:24:12;;;;;;;13.27;8.95;;;6.90;99.90;;;;;;5092691;22;20289;-59
2024/03/05 04:26:42;;;;;;;12.38;6.95;;;6.80;99.90;;;;;;5072237;28;20176;-59
2024/03/05 04:29:15;;;;;;;18.40;8.75;;;6.80;99.90;;;;;;5071403;28;20180;-59
2024/03/05 04:31:42;;;;;;;15.40;7.50;;;6.70;99.90;;;;;;5071618;28;20188;-60
2024/03/05 04:34:08;;;;;;;13.10;9.40;;;6.60;99.90;;;;;;5071966;28;20205;-59
2024/03/05 04:36:37;;;;;;;11.63;8.40;;;6.70;99.90;;;;;;5071706;28;20230;-59
2024/03/05 04:39:02;;;;;;;12.60;6.88;;;6.80;99.90;;;;;;5071799;28;20194;-59
2024/03/05 04:41:28;;;;;;;11.10;7.13;;;6.90;99.90;;;;;;5071108;28;20164;-59
2024/03/05 04:43:55;;;;;;;12.53;8.50;;;6.90;99.90;;;;;;5070628;28;20172;-60
2024/03/05 04:46:21;;;;;;;10.20;6.80;;;6.90;99.90;;;;;;5071435;28;20259;-59
2024/03/05 04:48:48;;;;;;;8.40;6.17;;;6.90;99.90;;;;;;5071213;28;20598;-59
2024/03/05 04:51:14;;;;;;;13.07;7.45;;;6.90;99.90;;;;;;5071439;28;20426;-59
2024/03/05 04:53:39;;;;;;;9.60;7.03;;;6.80;99.90;;;;;;5071807;28;20683;-59
2024/03/05 04:56:06;;;;;;;11.73;6.23;;;6.80;99.90;;;;;;5071747;28;20957;-60
2024/03/05 04:58:32;;;;;;;9.88;6.65;;;6.80;99.90;;;;;;5053332;28;20179;-59
2024/03/05 05:00:58;;;;;;;9.40;5.70;;;6.80;99.90;;;;;;5071643;28;20542;-59
2024/03/05 05:03:24;;;;;;;7.60;5.40;;;6.70;99.90;;;;;;5071604;28;20172;-59
2024/03/05 05:05:53;;;;;;;8.70;6.50;;;6.80;99.90;;;;;;5071521;28;20499;-59
2024/03/05 05:08:19;;;;;;;10.40;7.10;;;6.60;99.90;;;;;;5053169;28;20182;-59
2024/03/05 05:10:47;;;;;;;9.82;6.03;;;6.50;99.90;;;;;;5071482;28;20230;-59
2024/03/05 05:13:13;;;;;;;10.00;7.20;;;6.50;99.90;;;;;;5071295;28;20164;-59
2024/03/05 05:15:39;;;;;;;13.63;7.50;;;6.60;99.90;;;;;;5071649;28;20191;-59
2024/03/05 05:18:05;;;;;;;11.30;7.33;;;6.70;99.90;;;;;;5071074;28;20168;-59
2024/03/05 05:20:31;;;;;;;12.18;7.97;;;6.80;99.90;;;;;;5071318;28;20183;-59
2024/03/05 05:22:57;;;;;;;13.57;8.43;;;6.80;99.90;;;;;;5070549;28;20272;-59
2024/03/05 05:25:23;;;;;;;11.10;7.50;;;6.80;99.90;;;;;;5071062;28;20207;-59
2024/03/05 05:27:50;;;;;;;9.38;5.53;;;6.70;99.90;;;;;;5060240;28;20180;-59
2024/03/05 05:30:20;;;;;;;7.07;5.57;;;6.70;99.90;;;;;;5054584;28;20211;-59
2024/03/05 05:32:47;;;;;;;6.22;4.63;;;6.60;99.90;;;;;;5051055;28;20177;-59
2024/03/05 05:35:14;;;;;;;9.10;5.57;;;6.60;99.90;;;;;;5050930;28;20700;-59
2024/03/05 05:37:39;;;;;;;5.88;5.30;;;6.60;99.90;;;;;;5050879;28;20197;-59
2024/03/05 05:40:10;;;;;;;6.37;5.77;;;6.60;99.90;;;;;;5032939;28;20176;-58
2024/03/05 05:42:38;;;;;;;5.47;4.68;;;6.70;99.90;;;;;;5050609;28;20185;-59
2024/03/05 05:45:12;;;;;;;7.22;5.40;;;6.70;99.90;;;;;;5053711;28;20198;-59
2024/03/05 05:47:42;;;;;;;5.25;3.63;;;6.60;99.90;;;;;;5054569;28;20180;-59
2024/03/05 05:50:17;;;;;;;6.32;4.22;;;6.50;99.90;;;;;;5055048;28;20193;-59
2024/03/05 05:52:52;;;;;;;5.40;4.75;;;6.50;99.90;;;;;;5055067;28;20203;-59
2024/03/05 05:55:23;;;;;;;11.77;4.20;;;6.50;99.90;;;;;;5054970;28;20205;-59
2024/03/05 05:57:50;;;;;;;6.07;4.50;;;6.60;99.90;;;;;;5054681;28;20532;-59
2024/03/05 06:00:24;;;;;;;5.47;3.63;;;6.50;99.90;;;;;;5054941;28;20176;-59
2024/03/05 06:02:51;;;;;;;6.38;4.60;;;6.40;99.90;;;;;;5055089;28;20176;-59
2024/03/05 06:05:17;;;;;;;5.80;5.30;;;6.30;99.90;;;;;;5054882;28;20596;-59
2024/03/05 06:07:43;;;;;;;10.97;4.80;;;6.40;99.90;;;;;;5054476;28;20192;-59
2024/03/05 06:10:09;;;;;;;7.00;5.30;;;6.40;99.90;;;;;;5054741;28;20411;-59
2024/03/05 06:12:34;;;;;;;8.00;4.37;;;6.40;99.90;;;;;;5054659;28;20209;-59
2024/03/05 06:15:00;;;;;;;5.83;3.70;;;6.50;99.90;;;;;;5054809;28;20248;-59
2024/03/05 06:17:26;;;;;;;6.20;4.45;;;6.50;99.90;;;;;;5054406;28;20249;-59
2024/03/05 06:19:53;;;;;;;4.87;4.17;;;6.40;99.90;;;;;;5054982;28;20266;-59
2024/03/05 06:22:18;;;;;;;3.72;3.33;;;6.50;99.90;;;;;;5054478;28;20507;-59
2024/03/05 06:24:44;;;;;;;4.93;4.47;;;6.40;99.90;;;;;;5054186;28;20301;-59
2024/03/05 06:27:09;;;;;;;5.17;4.10;;;6.30;99.90;;;;;;5054447;28;20199;-59
2024/03/05 06:29:39;;;;;;;4.00;3.67;;;6.30;99.90;;;;;;5054276;28;20238;-59
2024/03/05 06:32:05;;;;;;;4.93;3.72;;;6.30;99.90;;;;;;5054295;28;20186;-59
2024/03/05 06:34:33;;;;;;;4.60;3.53;;;6.30;99.90;;;;;;5054232;28;20219;-59
2024/03/05 06:36:59;;;;;;;4.40;3.47;;;6.30;99.90;;;;;;5054386;28;20444;-59
2024/03/05 06:39:29;;;;;;;4.22;3.20;;;6.40;99.90;;;;;;5053893;28;20216;-59
2024/03/05 06:41:56;;;;;;;4.47;3.60;;;6.30;99.90;;;;;;5054200;28;20206;-59
2024/03/05 06:44:25;;;;;;;3.50;3.20;;;6.20;99.90;;;;;;5054212;28;20589;-59
2024/03/05 06:46:51;;;;;;;5.53;3.58;;;6.30;99.90;;;;;;5054044;28;20186;-59
2024/03/05 06:49:26;;;;;;;3.85;2.42;;;6.30;99.90;;;;;;5053741;28;20205;-59
2024/03/05 06:56:39;;;;;;;7.20;3.42;;;6.40;99.90;;;;;;5053845;28;20207;-59
2024/03/05 06:57:29;;;;;;;4.43;2.90;;;6.40;99.90;;;;;;5053536;28;20180;-59
2024/03/05 06:59:55;;;;;;;5.20;3.25;;;6.20;99.90;;;;;;5053855;28;20170;-59
2024/03/05 07:02:23;;;;;;;2.90;2.40;;;6.20;99.90;;;;;;5053699;28;20167;-59
2024/03/05 07:04:49;;;;;;;4.35;2.67;;;6.00;99.90;;;;;;5053635;28;20184;-59
2024/03/05 07:07:15;;;;;;;3.92;3.50;;;6.00;99.90;;;;;;5053716;28;20316;-59
2024/03/05 07:09:41;;;;;;;3.63;2.50;;;6.10;99.90;;;;;;5053633;28;20249;-59
2024/03/05 07:12:07;;;;;;;3.00;2.70;;;6.20;99.90;;;;;;5053512;28;20189;-59
2024/03/05 07:14:33;;;;;;;4.40;2.55;;;6.30;99.90;;;;;;5053550;28;20219;-59
2024/03/05 07:16:58;;;;;;;2.90;2.10;;;6.30;99.90;;;;;;5053443;28;20250;-59
2024/03/05 07:19:24;;;;;;;2.70;2.50;;;6.30;99.90;;;;;;5053228;28;20519;-59
2024/03/05 07:21:50;;;;;;;2.50;1.87;;;6.30;99.90;;;;;;5053428;28;20226;-59
2024/03/05 07:24:16;;;;;;;2.30;1.97;;;6.20;99.90;;;;;;5053238;28;20272;-60
2024/03/05 07:26:41;;;;;;;2.17;1.98;;;6.10;99.90;;;;;;5053394;28;20190;-59
2024/03/05 07:29:07;;;;;;;1.97;1.87;;;6.30;99.90;;;;;;5053005;28;20177;-59
2024/03/05 07:31:33;;;;;;;1.83;1.53;;;6.30;99.90;;;;;;5053244;28;20638;-59
2024/03/05 07:33:58;;;;;;;2.50;1.30;;;6.30;99.90;;;;;;5053070;28;20258;-59
2024/03/05 07:36:24;;;;;;;3.90;1.60;;;6.20;99.90;;;;;;5053366;28;20222;-59
2024/03/05 07:38:50;;;;;;;1.73;1.50;;;6.20;99.90;;;;;;5052759;28;20938;-59
2024/03/05 07:41:17;;;;;;;2.73;2.50;;;6.30;99.90;;;;;;5053125;28;20166;-59
2024/03/05 07:43:42;;;;;;;2.35;1.85;;;6.30;99.90;;;;;;5052952;28;20171;-59
2024/03/05 07:46:08;;;;;;;2.80;1.93;;;6.30;99.90;;;;;;5052898;28;20244;-59
2024/03/05 07:48:34;;;;;;;2.83;2.27;;;6.20;99.90;;;;;;5052677;28;20201;-59
2024/03/05 07:50:59;;;;;;;3.60;2.87;;;6.10;99.90;;;;;;5053182;28;20222;-59
2024/03/05 07:53:25;;;;;;;4.57;1.83;;;6.10;99.90;;;;;;5052711;28;20549;-59
2024/03/05 07:55:51;;;;;;;1.47;1.37;;;5.90;99.90;;;;;;5052829;28;20606;-59
2024/03/05 07:58:17;;;;;;;2.47;2.37;;;6.00;99.90;;;;;;5052378;28;20190;-59
2024/03/05 08:00:42;;;;;;;2.23;2.10;;;6.10;99.90;;;;;;5052496;28;20415;-59
2024/03/05 08:03:08;;;;;;;3.13;2.63;;;6.10;99.90;;;;;;5052680;28;20902;-59
2024/03/05 08:05:34;;;;;;;1.57;1.40;;;5.80;99.90;;;;;;5034786;28;20196;-59
2024/03/05 08:08:00;;;;;;;2.30;1.67;;;5.90;99.90;;;;;;5051555;28;20595;-59
2024/03/05 08:10:26;;;;;;;3.33;2.70;;;6.10;99.90;;;;;;5052504;28;20179;-59
2024/03/05 08:12:54;;;;;;;1.50;1.40;;;6.10;99.90;;;;;;5052456;28;20486;-59
2024/03/05 08:15:20;;;;;;;1.88;1.70;;;6.20;99.90;;;;;;5052256;28;20209;-59
2024/03/05 08:17:47;;;;;;;2.15;1.95;;;6.30;99.90;;;;;;5052316;28;20653;-59
2024/03/05 08:20:26;;;;;;;2.33;1.60;;;6.30;99.90;;;;;;5052318;28;20172;-59
2024/03/05 08:22:52;;;;;;;2.67;2.13;;;6.20;99.90;;;;;;5052273;28;20255;-59
2024/03/05 08:25:19;;;;;;;1.98;1.02;;;6.10;99.90;;;;;;5052302;28;20208;-59
2024/03/05 08:27:47;;;;;;;1.58;1.45;;;6.10;99.90;;;;;;5051868;28;20231;-59
2024/03/05 08:30:24;;;;;;;1.52;1.40;;;6.00;99.90;;;;;;5052130;28;20203;-59
2024/03/05 08:32:53;;;;;;;1.05;1.05;;;6.10;99.90;;;;;;5052185;28;20200;-58
2024/03/05 08:35:20;;;;;;;2.50;1.80;;;6.20;99.90;;;;;;5051989;28;20224;-59
2024/03/05 08:37:47;;;;;;;3.63;1.88;;;6.20;99.90;;;;;;5051665;28;20243;-59
2024/03/05 08:40:15;;;;;;;1.42;1.25;;;6.20;99.90;;;;;;5051947;28;20588;-59
2024/03/05 08:42:45;;;;;;;1.33;1.23;;;6.20;99.90;;;;;;5052112;28;20189;-59
2024/03/05 08:45:16;;;;;;;1.83;1.60;;;6.40;99.90;;;;;;5051959;28;20197;-59
2024/03/05 08:47:47;;;;;;;1.80;1.50;;;6.50;99.90;;;;;;5051599;28;20181;-59
2024/03/05 08:50:14;;;;;;;2.05;1.70;;;6.60;99.90;;;;;;5052026;28;20436;-59
2024/03/05 08:52:40;;;;;;;1.40;1.30;;;6.70;99.90;;;;;;5051738;28;20684;-59
2024/03/05 08:55:08;;;;;;;4.00;2.38;;;6.80;99.90;;;;;;5051523;28;20212;-59
2024/03/05 08:57:37;;;;;;;6.13;4.70;;;6.90;99.90;;;;;;5051515;28;20207;-59
2024/03/05 09:00:04;;;;;;;4.13;2.75;;;6.90;99.60;;;;;;5051696;28;20693;-59
2024/03/05 09:02:31;;;;;;;5.28;3.50;;;6.80;99.40;;;;;;5051898;28;20260;-59
2024/03/05 09:04:57;;;;;;;2.33;2.17;;;6.80;99.60;;;;;;5051489;28;20191;-59
2024/03/05 09:07:23;;;;;;;3.05;1.75;;;6.90;99.70;;;;;;5051360;28;20177;-59
2024/03/05 09:09:49;;;;;;;1.40;1.30;;;6.90;99.90;;;;;;5051427;28;20200;-59
2024/03/05 09:12:14;;;;;;;2.17;1.47;;;6.90;99.80;;;;;;5051431;28;20212;-59
2024/03/05 09:14:41;;;;;;;1.33;1.23;;;6.90;99.70;;;;;;5051272;28;20464;-60
2024/03/05 09:17:08;;;;;;;1.42;1.33;;;7.00;99.60;;;;;;5051432;28;20357;-59
2024/03/05 09:19:34;;;;;;;1.60;1.40;;;7.00;99.70;;;;;;5051011;28;20182;-59
2024/03/05 09:22:04;;;;;;;1.40;1.30;;;7.10;99.70;;;;;;5051148;28;20697;-59
2024/03/05 09:24:30;;;;;;;1.80;1.70;;;7.20;99.90;;;;;;5051355;28;20224;-59
2024/03/05 09:26:55;;;;;;;1.98;1.70;;;7.30;99.30;;;;;;5051304;28;20174;-59
2024/03/05 09:29:21;;;;;;;1.37;1.27;;;7.40;99.60;;;;;;5050984;28;20656;-59
2024/03/05 09:31:47;;;;;;;1.97;1.20;;;7.40;99.00;;;;;;5051224;28;20178;-59
2024/03/05 09:34:12;;;;;;;3.03;1.53;;;7.30;98.80;;;;;;5051081;28;20229;-59
2024/03/05 09:36:39;;;;;;;1.20;0.90;;;7.30;98.80;;;;;;5051078;28;20173;-59
2024/03/05 09:39:09;;;;;;;1.60;1.20;;;7.30;99.10;;;;;;5050800;28;20206;-59
2024/03/05 09:41:41;;;;;;;1.10;1.00;;;7.30;98.90;;;;;;5051207;28;20169;-59
2024/03/05 09:44:07;;;;;;;1.42;1.27;;;7.50;99.30;;;;;;5051093;28;20185;-59
2024/03/05 09:46:36;;;;;;;3.22;2.92;;;7.40;98.90;;;;;;5051587;28;20194;-59
2024/03/05 09:49:03;;;;;;;1.90;1.75;;;7.30;98.90;;;;;;5050639;28;20720;-59
2024/03/05 09:51:31;;;;;;;1.52;1.30;;;7.30;99.30;;;;;;5051045;28;20265;-59
2024/03/05 09:53:56;;;;;;;2.60;2.20;;;7.40;99.40;;;;;;5050708;28;20236;-59
2024/03/05 09:56:22;;;;;;;2.20;1.40;;;7.40;99.80;;;;;;5050888;28;20206;-59
2024/03/05 09:58:48;;;;;;;0.87;0.87;;;7.50;99.90;;;;;;5050756;28;20256;-59
2024/03/05 10:01:14;;;;;;;0.70;0.70;;;7.60;99.70;;;;;;5050980;28;20700;-59
2024/03/05 10:03:41;;;;;;;0.95;0.88;;;7.60;99.70;;;;;;5050772;28;20264;-59
2024/03/05 10:06:09;;;;;;;0.93;0.77;;;7.60;99.60;;;;;;5050857;28;20176;-59
2024/03/05 10:08:35;;;;;;;0.90;0.82;;;7.60;99.20;;;;;;5050667;28;20168;-59
2024/03/05 10:11:02;;;;;;;0.88;0.80;;;7.60;99.30;;;;;;5050870;28;20184;-59
2024/03/05 10:13:32;;;;;;;1.50;1.40;;;7.60;99.30;;;;;;5050800;28;20520;-59
2024/03/05 10:16:22;;;;;;;1.83;1.63;;;7.60;99.40;;;;;;5050681;28;20201;-59
2024/03/05 10:18:49;;;;;;;1.73;1.48;;;7.50;99.10;;;;;;5050690;28;20200;-59
2024/03/05 10:21:20;;;;;;;4.05;2.10;;;7.40;99.30;;;;;;5050819;28;20178;-59
2024/03/05 10:23:56;;;;;;;1.58;1.48;;;7.50;99.50;;;;;;5050709;28;20550;-59
2024/03/05 10:26:30;;;;;;;1.00;0.90;;;7.50;99.10;;;;;;5050679;28;20185;-59
2024/03/05 10:29:09;;;;;;;0.85;0.80;;;7.40;99.00;;;;;;5050749;28;20223;-59
2024/03/05 10:31:39;;;;;;;0.70;0.70;;;7.20;99.10;;;;;;5054017;28;20298;-59
2024/03/05 10:34:06;;;;;;;0.82;0.80;;;7.20;99.50;;;;;;5054304;28;20217;-59
2024/03/05 10:36:36;;;;;;;1.35;1.25;;;7.30;99.50;;;;;;5054280;28;20205;-58
2024/03/05 10:39:03;;;;;;;2.30;1.42;;;7.30;98.80;;;;;;5053876;28;20166;-59
2024/03/05 10:41:30;;;;;;;2.30;1.15;;;7.30;99.00;;;;;;5054208;28;20256;-58
2024/03/05 10:44:00;;;;;;;1.58;1.10;;;7.20;98.80;;;;;;5054096;28;20190;-58
2024/03/05 10:46:28;;;;;;;1.65;1.55;;;7.20;99.20;;;;;;5054106;28;20678;-59
2024/03/05 10:48:54;;;;;;;2.60;1.75;;;7.20;99.20;;;;;;5053771;28;20202;-59
2024/03/05 10:51:22;;;;;;;2.55;1.52;;;7.10;98.90;;;;;;5053932;28;20264;-59
2024/03/05 10:53:50;;;;;;;1.67;1.58;;;7.10;99.40;;;;;;5053814;28;20665;-59
2024/03/05 10:56:21;;;;;;;1.52;1.30;;;7.10;99.60;;;;;;5058608;28;20288;-59
2024/03/05 11:01:24;;;;;;;1.40;1.30;;;7.10;99.20;;;;;;5073975;28;20198;-59
2024/03/05 11:03:55;;;;;;;2.45;1.40;;;7.00;99.80;;;;;;5073657;28;20214;-59
2024/03/05 11:06:21;;;;;;;1.52;1.42;;;7.10;99.70;;;;;;5073793;28;20184;-59
2024/03/05 11:08:51;;;;;;;1.20;1.10;;;7.10;99.50;;;;;;5073860;28;20646;-59
2024/03/05 11:11:22;;;;;;;2.28;1.42;;;7.10;99.90;;;;;;5073728;28;20172;-59
2024/03/05 11:13:50;;;;;;;2.55;1.42;;;7.20;99.00;;;;;;5055539;28;20769;-59
2024/03/05 11:16:16;;;;;;;1.65;1.08;;;7.30;99.10;;;;;;5073607;28;20260;-59
2024/03/05 11:18:44;;;;;;;2.20;2.08;;;7.50;99.40;;;;;;5073075;28;20553;-59
2024/03/05 11:21:15;;;;;;;5.60;2.22;;;7.70;99.30;;;;;;5073447;28;20176;-58
2024/03/05 11:23:42;;;;;;;0.80;0.80;;;7.70;98.20;;;;;;5073294;28;20204;-59
2024/03/05 11:26:17;;;;;;;1.73;0.95;;;7.80;98.50;;;;;;5073353;28;20191;-59
2024/03/05 11:28:42;;;;;;;2.38;1.70;;;7.90;98.40;;;;;;5073140;28;20173;-59
2024/03/05 11:31:09;;;;;;;0.83;0.83;;;7.90;98.40;;;;;;5073175;28;20177;-58
2024/03/05 11:33:35;;;;;;;1.10;1.00;;;7.40;98.50;;;;;;5073132;28;20208;-59
2024/03/05 11:36:01;;;;;;;1.63;1.27;;;7.30;99.00;;;;;;5073131;28;20217;-58
2024/03/05 11:38:26;;;;;;;7.70;1.20;;;7.40;99.50;;;;;;5072900;28;20767;-59
2024/03/05 11:40:58;;;;;;;4.30;1.20;;;7.60;99.20;;;;;;5072714;28;20169;-58
2024/03/05 11:43:37;;;;;;;1.65;1.55;;;7.80;98.40;;;;;;5072107;28;20180;-58
2024/03/05 11:46:02;;;;;;;6.68;2.08;;;7.80;97.70;;;;;;5073221;28;20196;-58
2024/03/05 11:48:28;;;;;;;5.63;1.63;;;7.90;98.50;;;;;;5072671;28;20704;-59
2024/03/05 11:50:54;;;;;;;2.73;2.00;;;8.10;98.60;;;;;;5072870;28;20196;-59
2024/03/05 11:53:20;;;;;;;1.55;1.00;;;8.40;98.60;;;;;;5072898;28;20657;-58
2024/03/05 11:55:50;;;;;;;1.60;1.20;;;8.60;98.30;;;;;;5072624;28;20287;-58
2024/03/05 11:58:23;;;;;;;0.82;0.82;;;8.80;97.60;;;;;;5072351;28;20400;-58
2024/03/05 12:00:49;;;;;;;2.55;1.02;;;9.10;97.80;;;;;;5072732;28;20178;-59
2024/03/05 12:03:19;;;;;;;1.25;1.15;;;9.30;96.60;;;;;;5072540;28;20215;-58
2024/03/05 12:05:45;;;;;;;0.85;0.85;;;9.40;96.20;;;;;;5072538;28;20185;-59
2024/03/05 12:08:11;;;;;;;1.83;1.17;;;9.50;96.10;;;;;;5072243;28;20176;-59
2024/03/05 12:10:37;;;;;;;1.13;1.03;;;9.60;96.20;;;;;;5072347;28;20256;-58
2024/03/05 12:13:03;;;;;;;0.90;0.90;;;9.60;96.00;;;;;;5072630;28;20200;-59
2024/03/05 12:15:30;;;;;;;4.95;1.70;;;9.60;95.80;;;;;;5072285;28;20826;-59
2024/03/05 12:17:56;;;;;;;1.80;1.30;;;9.70;95.60;;;;;;5072157;28;20201;-59
2024/03/05 12:20:22;;;;;;;1.10;1.00;;;9.70;96.00;;;;;;5072280;28;20179;-59
2024/03/05 12:22:55;;;;;;;2.15;1.15;;;9.80;95.40;;;;;;5072205;28;20172;-59
2024/03/05 12:25:30;;;;;;;1.00;0.90;;;9.90;95.20;;;;;;5072003;28;20674;-59
2024/03/05 12:27:55;;;;;;;0.80;0.80;;;9.80;94.60;;;;;;5071901;28;20176;-59
2024/03/05 12:30:21;;;;;;;5.13;1.60;;;9.80;95.00;;;;;;5072092;28;20169;-58
2024/03/05 12:32:54;;;;;;;0.70;0.70;;;9.70;95.00;;;;;;5072142;28;20183;-59
2024/03/05 12:35:22;;;;;;;4.70;1.60;;;9.60;95.00;;;;;;5071877;28;20201;-59
2024/03/05 12:37:50;;;;;;;2.10;1.13;;;9.40;94.80;;;;;;5071664;28;20227;-59
2024/03/05 12:40:20;;;;;;;1.70;0.80;;;9.20;94.80;;;;;;5071868;28;20170;-58
2024/03/05 12:42:50;;;;;;;4.03;0.90;;;9.00;95.30;;;;;;5071855;28;20177;-59
2024/03/05 12:45:17;;;;;;;4.68;1.63;;;9.00;95.30;;;;;;5071795;28;20262;-58
2024/03/05 12:48:05;;;;;;;2.35;1.02;;;9.00;95.60;;;;;;5071373;28;20185;-59
2024/03/05 12:50:34;;;;;;;5.13;1.30;;;8.90;95.90;;;;;;5071798;28;20472;-58
2024/03/05 12:53:07;;;;;;;2.28;1.02;;;8.70;95.90;;;;;;5071341;28;20257;-58
2024/03/05 12:55:32;;;;;;;1.25;1.15;;;8.70;96.30;;;;;;5071702;28;20586;-59